Terminal Aerodrome Forecast
Issued by NWS

Home | Current Version | Previous Version | Text Only | Print | Product List | Glossary On
Versions: 1 2 3 4 5 6 7 8 9 10 11 12 13 14
000
FTAK31 PANC 212344
TAFAAQ
TAF
PAAQ 212344Z 2200/2224 14012G18KT P6SM VCSH BKN060 OVC100
     FM220600 VRB06KT P6SM -SHRA BKN050 OVC100
     FM221700 15008KT P6SM VCSH BKN060 OVC100=

USA.gov is the U.S. government's official web portal to all federal, state and local government web resources and services.